Sunday, May 27, 2018, 9:59 AM GMT
Back to Local

CYHM, Hamilton Airport

Location: , , Canada Lat: 43.167
Local Time: 9:59 AM GMT ( 9:59 GMT) Lon: -79.933
Time Zone: GMT Elev: 777 ft

Show me the last for .
Show Decoded

2018-05-27 09:00 METAR CYHM 270900Z 03006KT 8SM MIFG BKN091 BKN250 14/13 A2988 RMK AC5CI1 SLP118
                 DENSITY ALT 1000FT =
2018-05-27 08:00 METAR CYHM 270800Z 04004KT 15SM BKN094 BKN110 15/14 A2988 RMK AC6AC1 SLP117
                 DENSITY ALT 1000FT =
2018-05-27 07:00 METAR CYHM 270700Z 06005KT 15SM FEW100 15/14 A2987 RMK AC2 SLP114 DENSITY ALT
                 1000FT =
2018-05-27 06:00 METAR CYHM 270600Z 04006KT 15SM SCT100 BKN150 15/14 A2987 RMK AC3AC2 SLP113
                 DENSITY ALT 1100FT =
2018-05-27 05:00 METAR CYHM 270500Z 10004KT 15SM SCT150 SCT250 17/15 A2987 RMK AC3CI1 CI TR
                 SLP115 DENSITY ALT 1300FT =
2018-05-27 04:00 METAR CYHM 270400Z 07004KT 360V080 15SM BKN150 18/15 A2987 RMK AC6 SLP114
                 DENSITY ALT 1400FT =
2018-05-27 03:00 METAR CYHM 270300Z 05003KT 15SM OVC140 19/15 A2987 RMK AC8 SLP115 DENSITY ALT
                 1500FT =
2018-05-27 02:00 METAR CYHM 270200Z 05007KT 15SM BKN140 BKN160 18/15 A2987 RMK AC5AC1 SLP113
                 DENSITY ALT 1400FT =
2018-05-27 01:00 METAR CYHM 270100Z 05008KT 15SM BKN140 20/14 A2984 RMK AC7 SLP106 DENSITY ALT
                 1700FT =
2018-05-27 00:00 METAR CYHM 270000Z 17005KT 15SM BKN150 BKN250 24/16 A2983 RMK AC6CI1 CI TR
                 SLP100 DENSITY ALT 2100FT =
2018-05-26 23:00 METAR CYHM 262300Z 23003KT 160V230 15SM FEW050TCU FEW150 SCT250 26/16 A2980 RMK
                 TCU1AC2CI1 TCU TR SLP091 DENSITY ALT 2400FT =
2018-05-26 22:00 METAR CYHM 262200Z 22007KT 15SM FEW050TCU FEW180 BKN250 27/15 A2979 RMK
                 TCU1AC1CI4 TCU TR SLP088 DENSITY ALT 2500FT =
2018-05-26 21:00 METAR CYHM 262100Z 25009KT 210V280 15SM FEW050 FEW110 SCT180 BKN220 27/14 A2979
                 RMK CU1AC1AC3CI2 CU TR SLP087 DENSITY ALT 2600FT =
2018-05-26 20:00 METAR CYHM 262000Z 23009KT 15SM FEW072 BKN110 BKN170 25/17 A2980 RMK AC1AC4AC2
                 SLP091 DENSITY ALT 2300FT =
2018-05-26 19:00 METAR CYHM 261900Z 19009KT 15SM FEW064 BKN098 BKN170 25/16 A2981 RMK CU2AC3AC2
                 SLP094 DENSITY ALT 2300FT =
2018-05-26 18:00 METAR CYHM 261800Z 18008KT 15SM FEW060 OVC140 25/17 A2981 RMK CU2AC6 SLP093
                 DENSITY ALT 2300FT =
2018-05-26 17:00 METAR CYHM 261700Z 19006KT 15SM FEW065 OVC130 24/15 A2982 RMK CU2AC6 SLP098
                 DENSITY ALT 2200FT =
2018-05-26 16:00 METAR CYHM 261600Z VRB02KT 15SM FEW060 SCT085 OVC160 25/15 A2982 RMK CU2AC2AC4
                 SLP096 DENSITY ALT 2200FT =
2018-05-26 15:00 METAR CYHM 261500Z 00000KT 15SM SCT060 OVC076 24/15 A2982 RMK CU3AC5 SLP098
                 DENSITY ALT 2100FT =
2018-05-26 14:00 METAR CYHM 261400Z 00000KT 15SM SCT065 BKN080 BKN110 22/15 A2981 RMK CU3AC3AC1
                 SLP095 DENSITY ALT 2000FT =
2018-05-26 13:00 METAR CYHM 261300Z 26005KT 15SM SCT065 BKN090 BKN160 21/14 A2980 RMK CU3AC2AC2
                 SLP092 DENSITY ALT 1800FT =
2018-05-26 12:00 METAR CYHM 261200Z 22006KT 15SM FEW064 SCT160 BKN190 OVC210 17/14 A2980 RMK
                 SC1AC2AS3CI2 SLP091 DENSITY ALT 1400FT =
2018-05-26 11:00 METAR CYHM 261100Z 24004KT 60SM BKN180 BKN210 15/12 A2979 RMK AC5CI2 SLP086
                 DENSITY ALT 1200FT =
2018-05-26 10:00 METAR CYHM 261000Z 25004KT 15SM BKN240 14/11 A2977 RMK CI6 CONTRAILS SLP081
                 DENSITY ALT 1100FT =

Support USWX by starting your Amazon purchase here.